Saint Lawrence, Pennsylvania
Current Conditions -  °F | °C
As of 5:54 AM on Friday 28 Nov 2014 (Local Time) from KRDG Reporting Station
Broken Clouds Broken Clouds  
Wind Chill: 23°   Ceiling: 4200
Heat Index: 32°   Visibility: 10mi
Dew Point: 22°   Wind: 12mph
Humidity: 66%   Direction: 280°W
Pressure: 30.15"   Gusts: NA
Location:  40.3351°N, 75.8521°W
Report Text: KRDG 281054Z 28010KT 10SM BKN042 00/M06 A3015 RMK AO2 SLP216 T00001056
Loading
Personal Weather Stations






























Interactive Weather Map New forecast layout! Learn more

10-Day Weather Forecast

Advertisements
Track Severe Weather on mobile